Time;durP1;ratioP1;P1;durP2;ratioP2;P2;SDS_P1;SDS_P2;PMS_P1;PMS_P2;Temp;Humidity;BMP_temperature;BMP_pressure;BME280_temperature;BME280_humidity;BME280_pressure;Samples;Min_cycle;Max_cycle;Signal;HPM_P1;HPM_P2
2022/09/19 00:01:36;;;;;;;4.32;0.35;;;11.90;99.90;;;;;;6184517;23;20017;-83
2022/09/19 00:04:13;;;;;;;0.88;0.20;;;11.90;99.90;;;;;;6184433;22;20021;-84
2022/09/19 00:06:41;;;;;;;3.70;0.50;;;11.90;99.90;;;;;;6184332;23;20341;-84
2022/09/19 00:09:09;;;;;;;0.57;0.10;;;11.90;99.90;;;;;;6185313;23;20023;-85
2022/09/19 00:11:39;;;;;;;3.03;0.43;;;11.90;99.90;;;;;;6186075;23;20017;-84
2022/09/19 00:14:05;;;;;;;3.38;0.45;;;11.90;99.90;;;;;;6185632;23;20028;-84
2022/09/19 00:16:36;;;;;;;1.20;0.25;;;11.90;99.90;;;;;;6185707;23;20036;-85
2022/09/19 00:19:04;;;;;;;1.00;0.30;;;11.90;99.90;;;;;;6160740;23;20345;-84
2022/09/19 00:21:36;;;;;;;2.40;0.30;;;11.90;99.90;;;;;;6160803;23;20065;-85
2022/09/19 00:26:47;;;;;;;2.63;0.38;;;11.90;99.90;;;;;;6164549;23;20459;-83
2022/09/19 00:29:15;;;;;;;2.53;0.30;;;11.90;99.90;;;;;;6185712;23;20017;-84
2022/09/19 00:31:43;;;;;;;2.40;0.73;;;11.90;99.90;;;;;;6160955;23;20088;-85
2022/09/19 00:34:09;;;;;;;2.78;0.30;;;11.90;99.90;;;;;;6161696;23;20069;-84
2022/09/19 00:36:36;;;;;;;3.28;0.43;;;11.90;99.90;;;;;;6191465;23;20016;-83
2022/09/19 00:39:04;;;;;;;2.63;0.30;;;11.90;99.90;;;;;;6185388;23;20361;-84
2022/09/19 00:41:30;;;;;;;2.05;0.43;;;11.90;99.90;;;;;;6185661;23;20021;-85
2022/09/19 00:43:59;;;;;;;2.65;0.70;;;11.90;99.90;;;;;;6160944;22;20046;-85
2022/09/19 00:46:27;;;;;;;4.68;0.55;;;11.90;99.90;;;;;;6160782;23;20392;-84
2022/09/19 00:49:14;;;;;;;2.60;0.38;;;11.90;99.90;;;;;;6160537;23;20028;-84
2022/09/19 00:51:48;;;;;;;3.93;0.30;;;12.00;99.90;;;;;;6185553;23;20023;-84
2022/09/19 00:54:20;;;;;;;4.28;0.47;;;12.00;99.90;;;;;;6160387;23;20259;-84
2022/09/19 00:56:50;;;;;;;4.15;0.30;;;12.00;99.90;;;;;;6183617;23;20021;-83
2022/09/19 00:59:16;;;;;;;1.10;0.20;;;12.00;99.90;;;;;;6158692;23;20017;-83
2022/09/19 01:01:42;;;;;;;1.60;0.35;;;12.00;99.90;;;;;;6185374;23;20092;-84
2022/09/19 01:04:23;;;;;;;1.02;0.32;;;12.00;99.90;;;;;;6185446;23;20052;-84
2022/09/19 01:06:58;;;;;;;2.60;0.88;;;12.00;99.90;;;;;;6185305;23;20020;-84
2022/09/19 01:09:48;;;;;;;3.17;0.40;;;12.00;99.90;;;;;;6189982;23;20041;-83
2022/09/19 01:12:46;;;;;;;2.60;1.10;;;12.00;99.90;;;;;;6162613;23;20086;-84
2022/09/19 01:15:19;;;;;;;5.57;0.60;;;12.10;99.90;;;;;;6160629;22;20056;-85
2022/09/19 01:17:50;;;;;;;4.60;0.50;;;12.10;99.90;;;;;;6185254;23;20416;-85
2022/09/19 01:20:45;;;;;;;2.58;0.40;;;12.10;99.90;;;;;;6184531;23;20020;-84
2022/09/19 01:23:26;;;;;;;2.97;0.40;;;12.20;99.90;;;;;;6160586;23;20023;-84
2022/09/19 01:26:10;;;;;;;2.03;0.30;;;12.20;99.90;;;;;;6160046;23;20017;-84
2022/09/19 01:28:41;;;;;;;3.10;0.38;;;12.10;99.90;;;;;;6183354;23;20098;-84
2022/09/19 01:31:40;;;;;;;3.63;0.65;;;12.20;99.90;;;;;;6184571;23;20020;-84
2022/09/19 01:34:24;;;;;;;;;;;12.20;99.90;;;;;;6173074;23;20027;-83
2022/09/19 01:37:02;;;;;;;4.07;0.60;;;12.20;99.90;;;;;;6159516;23;19923;-84
2022/09/19 01:39:30;;;;;;;3.78;0.40;;;12.20;99.90;;;;;;6160728;22;20091;-84
2022/09/19 01:41:59;;;;;;;2.97;0.50;;;12.20;99.90;;;;;;6185087;23;20021;-85
2022/09/19 01:44:27;;;;;;;3.72;0.30;;;12.20;99.90;;;;;;6182637;23;20077;-85
2022/09/19 01:46:58;;;;;;;1.95;0.20;;;12.20;99.90;;;;;;6182940;23;20020;-84
2022/09/19 01:49:41;;;;;;;3.03;0.60;;;12.30;99.90;;;;;;6157965;23;20021;-86
2022/09/19 01:52:48;;;;;;;1.95;0.38;;;12.20;99.90;;;;;;6182710;23;20091;-85
2022/09/19 01:55:27;;;;;;;3.33;0.30;;;12.20;99.90;;;;;;6157336;23;20112;-84
2022/09/19 01:58:04;;;;;;;3.85;0.32;;;12.20;99.90;;;;;;6158540;22;20048;-85
2022/09/19 02:00:31;;;;;;;2.97;0.30;;;12.10;99.90;;;;;;6185174;22;20017;-85
2022/09/19 02:03:23;;;;;;;1.30;0.17;;;12.10;99.90;;;;;;6185007;23;20017;-86
2022/09/19 02:05:56;;;;;;;2.92;0.20;;;12.20;99.90;;;;;;6160277;23;20024;-84
2022/09/19 02:08:22;;;;;;;2.28;0.30;;;12.20;99.90;;;;;;6159815;23;20013;-85
2022/09/19 02:11:14;;;;;;;3.45;0.52;;;12.20;99.90;;;;;;6184941;23;20510;-85
2022/09/19 02:13:45;;;;;;;3.92;0.70;;;12.20;99.90;;;;;;6185004;22;20020;-84
2022/09/19 02:16:24;;;;;;;1.75;0.28;;;12.20;99.90;;;;;;6160032;23;20017;-85
2022/09/19 02:19:06;;;;;;;2.72;0.50;;;12.20;99.90;;;;;;6185063;23;20081;-86
2022/09/19 02:21:53;;;;;;;3.50;0.50;;;12.20;99.90;;;;;;6185227;23;20107;-86
2022/09/19 02:24:28;;;;;;;6.57;0.32;;;12.20;99.90;;;;;;6160181;23;20027;-85
2022/09/19 02:27:00;;;;;;;5.32;0.75;;;12.10;99.90;;;;;;6160522;23;20017;-87
2022/09/19 02:29:30;;;;;;;2.85;0.50;;;12.20;99.90;;;;;;6159930;23;20016;-87
2022/09/19 02:31:57;;;;;;;2.58;0.50;;;12.10;99.90;;;;;;6185161;23;20049;-86
2022/09/19 02:34:24;;;;;;;2.85;0.32;;;12.10;99.90;;;;;;6160202;23;20016;-85
2022/09/19 02:37:21;;;;;;;2.53;0.17;;;12.10;99.90;;;;;;6136272;23;20068;-85
2022/09/19 02:40:04;;;;;;;1.45;0.20;;;12.10;99.90;;;;;;6180795;23;20027;-84
2022/09/19 02:43:03;;;;;;;0.90;0.10;;;12.00;99.90;;;;;;6184753;23;20023;-84
2022/09/19 02:45:38;;;;;;;2.60;0.30;;;12.00;99.90;;;;;;6184997;23;20021;-84
2022/09/19 02:48:12;;;;;;;11.50;0.50;;;12.00;99.90;;;;;;6184954;23;20383;-86
2022/09/19 02:51:11;;;;;;;1.30;0.25;;;12.00;99.90;;;;;;6184778;23;20091;-85
2022/09/19 02:53:50;;;;;;;2.75;0.30;;;12.00;99.90;;;;;;6159842;23;20091;-83
2022/09/19 02:56:17;;;;;;;3.00;0.40;;;12.00;99.90;;;;;;6184757;23;20020;-84
2022/09/19 02:58:56;;;;;;;3.50;0.30;;;11.90;99.90;;;;;;6211693;23;20048;-84
2022/09/19 03:01:25;;;;;;;3.15;0.32;;;12.00;99.90;;;;;;6160002;23;20372;-83
2022/09/19 03:04:14;;;;;;;2.78;0.40;;;11.90;99.90;;;;;;6184842;23;20077;-83
2022/09/19 03:06:49;;;;;;;3.53;0.43;;;12.00;99.90;;;;;;6184822;23;20044;-84
2022/09/19 03:09:19;;;;;;;2.70;0.50;;;12.00;99.90;;;;;;6160214;23;20020;-84
2022/09/19 03:11:50;;;;;;;2.70;0.32;;;12.00;99.90;;;;;;6185547;23;20023;-84
2022/09/19 03:14:17;;;;;;;3.35;0.40;;;12.00;99.90;;;;;;6214788;23;20020;-85
2022/09/19 03:16:46;;;;;;;3.83;0.40;;;12.00;99.90;;;;;;6160292;23;20508;-85
2022/09/19 03:19:12;;;;;;;1.65;0.20;;;12.00;99.90;;;;;;6184761;23;20091;-85
2022/09/19 03:21:38;;;;;;;2.30;0.30;;;12.00;99.90;;;;;;6184879;23;20012;-84
2022/09/19 03:24:05;;;;;;;2.45;0.22;;;12.00;99.90;;;;;;6159743;23;20099;-84
2022/09/19 03:26:34;;;;;;;3.55;0.35;;;12.00;99.90;;;;;;6184585;22;20055;-85
2022/09/19 03:29:02;;;;;;;2.13;0.28;;;12.00;99.90;;;;;;6159745;23;20016;-85
2022/09/19 03:31:28;;;;;;;2.13;0.55;;;12.00;99.90;;;;;;6288838;22;20065;-85
2022/09/19 03:33:58;;;;;;;2.05;0.30;;;12.10;99.90;;;;;;6182528;23;20044;-84
2022/09/19 03:36:25;;;;;;;4.30;0.47;;;12.10;99.90;;;;;;6182909;23;20095;-85
2022/09/19 03:38:50;;;;;;;;;;;12.00;99.90;;;;;;6134213;23;20016;-83
2022/09/19 03:41:18;;;;;;;2.80;0.47;;;12.10;99.90;;;;;;6157623;23;20218;-84
2022/09/19 03:43:44;;;;;;;5.15;0.40;;;12.10;99.90;;;;;;6184281;23;20081;-85
2022/09/19 03:46:15;;;;;;;2.37;0.63;;;12.10;99.90;;;;;;6184321;23;20449;-84
2022/09/19 03:48:44;;;;;;;1.98;0.40;;;12.20;99.90;;;;;;6289892;22;20012;-85
2022/09/19 03:51:14;;;;;;;1.77;0.38;;;12.20;99.90;;;;;;6160085;23;20020;-85
2022/09/19 03:53:44;;;;;;;3.33;0.38;;;12.20;99.90;;;;;;6184580;23;20453;-83
2022/09/19 03:56:11;;;;;;;2.22;0.38;;;12.20;99.90;;;;;;6160444;23;20017;-85
2022/09/19 03:58:41;;;;;;;4.28;0.82;;;12.20;99.90;;;;;;6184330;23;20446;-85
2022/09/19 04:01:07;;;;;;;3.55;0.50;;;12.20;99.90;;;;;;6135575;23;20017;-85
2022/09/19 04:03:34;;;;;;;3.47;0.82;;;12.20;99.90;;;;;;6184339;23;20341;-86
2022/09/19 04:06:00;;;;;;;;;;;12.20;99.90;;;;;;6160261;22;20040;-84
2022/09/19 04:08:27;;;;;;;1.92;0.10;;;12.20;99.90;;;;;;6184178;23;20253;-85
2022/09/19 04:10:53;;;;;;;1.88;0.50;;;12.20;99.90;;;;;;6263243;22;20021;-84
2022/09/19 04:13:21;;;;;;;1.70;0.30;;;12.20;99.90;;;;;;6210826;23;20017;-84
2022/09/19 04:15:48;;;;;;;3.55;0.70;;;12.20;99.90;;;;;;6159415;22;20020;-84
2022/09/19 04:18:14;;;;;;;6.30;0.40;;;12.20;99.90;;;;;;6157062;23;20193;-85
2022/09/19 04:20:40;;;;;;;3.55;0.25;;;12.20;99.90;;;;;;6182747;23;20013;-85
2022/09/19 04:23:06;;;;;;;2.17;0.33;;;12.20;99.90;;;;;;6132771;23;20353;-87
2022/09/19 04:25:35;;;;;;;3.88;0.35;;;12.20;99.90;;;;;;6182435;23;20024;-87
2022/09/19 04:28:03;;;;;;;3.88;0.20;;;12.20;99.90;;;;;;6159014;23;20020;-84
2022/09/19 04:30:31;;;;;;;4.53;0.47;;;12.20;99.90;;;;;;6184189;23;20024;-84
2022/09/19 04:33:00;;;;;;;4.15;0.98;;;12.20;99.90;;;;;;6184653;23;20056;-85
2022/09/19 04:35:26;;;;;;;2.97;0.40;;;12.20;99.90;;;;;;6184305;23;20322;-83
2022/09/19 04:37:52;;;;;;;4.40;0.32;;;12.10;99.90;;;;;;6184285;23;20017;-83
2022/09/19 04:40:18;;;;;;;1.47;0.20;;;12.10;99.90;;;;;;6184042;23;20043;-83
2022/09/19 04:42:45;;;;;;;;;;;12.10;99.90;;;;;;6135328;23;20017;-84
2022/09/19 04:45:12;;;;;;;2.83;0.70;;;12.10;99.90;;;;;;6183863;23;19923;-86
2022/09/19 04:47:43;;;;;;;3.65;0.40;;;12.10;99.90;;;;;;6159995;22;20021;-83
2022/09/19 04:50:09;;;;;;;2.53;0.82;;;12.10;99.90;;;;;;6159674;23;20384;-83
2022/09/19 04:52:38;;;;;;;5.07;0.82;;;12.10;99.90;;;;;;6135141;23;20023;-84
2022/09/19 04:55:04;;;;;;;3.30;0.50;;;12.20;99.90;;;;;;6161268;23;20107;-83
2022/09/19 04:57:30;;;;;;;1.08;0.25;;;12.20;99.90;;;;;;6183720;23;20017;-83
2022/09/19 04:59:56;;;;;;;4.27;0.77;;;12.10;99.90;;;;;;6184364;23;20017;-85
2022/09/19 05:02:22;;;;;;;5.20;0.47;;;12.20;99.90;;;;;;6183709;23;20021;-85
2022/09/19 05:04:47;;;;;;;3.30;0.50;;;12.20;99.90;;;;;;6160270;23;20506;-84
2022/09/19 05:07:19;;;;;;;2.73;0.33;;;12.20;99.90;;;;;;6185806;23;20044;-83
2022/09/19 05:09:44;;;;;;;3.40;0.60;;;12.20;99.90;;;;;;6136261;23;20025;-83
2022/09/19 05:12:11;;;;;;;4.27;0.57;;;12.20;99.90;;;;;;6186143;23;20013;-83
2022/09/19 05:14:36;;;;;;;1.27;0.30;;;12.20;99.90;;;;;;6211546;23;20338;-83
2022/09/19 05:17:03;;;;;;;2.00;0.60;;;12.20;99.90;;;;;;6160577;23;20103;-84
2022/09/19 05:19:28;;;;;;;5.57;0.40;;;12.30;99.90;;;;;;6185192;22;20449;-85
2022/09/19 05:21:54;;;;;;;3.77;0.30;;;12.20;99.90;;;;;;6184847;23;20023;-86
2022/09/19 05:24:20;;;;;;;2.97;0.47;;;12.20;99.90;;;;;;6185145;23;20027;-84
2022/09/19 05:26:46;;;;;;;3.10;0.50;;;12.20;99.90;;;;;;6211739;23;20095;-87
2022/09/19 05:29:15;;;;;;;3.38;0.50;;;12.20;99.90;;;;;;6211741;23;20043;-84
2022/09/19 05:31:44;;;;;;;2.38;0.40;;;12.20;99.90;;;;;;6211520;23;20016;-84
2022/09/19 05:34:11;;;;;;;2.40;0.43;;;12.20;99.90;;;;;;6161296;23;20070;-86
2022/09/19 05:36:38;;;;;;;;;;;12.20;99.90;;;;;;6161444;22;20021;-84
2022/09/19 05:39:04;;;;;;;3.80;0.43;;;12.20;99.90;;;;;;6185017;23;19915;-85
2022/09/19 05:41:30;;;;;;;2.47;0.40;;;12.20;99.90;;;;;;6185054;23;20061;-83
2022/09/19 05:43:56;;;;;;;3.70;0.37;;;12.20;99.90;;;;;;6185148;23;20109;-84
2022/09/19 05:46:23;;;;;;;4.38;0.43;;;12.20;99.90;;;;;;6185586;23;20019;-84
2022/09/19 05:48:49;;;;;;;2.75;0.40;;;12.20;99.90;;;;;;6184936;23;20074;-84
2022/09/19 05:51:14;;;;;;;7.13;0.97;;;12.30;99.90;;;;;;6184971;23;20020;-83
2022/09/19 05:53:52;;;;;;;1.67;0.37;;;12.20;99.90;;;;;;6160421;23;20024;-84
2022/09/19 05:56:18;;;;;;;3.05;0.35;;;12.20;99.90;;;;;;6211677;23;20104;-84
2022/09/19 05:58:44;;;;;;;2.77;0.37;;;12.20;99.90;;;;;;6160268;23;20051;-83
2022/09/19 06:01:11;;;;;;;4.03;0.30;;;12.20;99.90;;;;;;6159054;22;20025;-84
2022/09/19 06:03:38;;;;;;;5.18;1.80;;;12.30;99.90;;;;;;6183256;23;20025;-84
2022/09/19 06:06:11;;;;;;;3.83;0.50;;;12.20;99.90;;;;;;6133352;23;20328;-84
2022/09/19 06:08:38;;;;;;;3.13;0.40;;;12.20;99.90;;;;;;6158573;23;20020;-82
2022/09/19 06:11:05;;;;;;;2.75;0.52;;;12.20;99.90;;;;;;6210977;23;20017;-84
2022/09/19 06:16:17;;;;;;;4.07;0.32;;;12.20;99.90;;;;;;6189180;23;20129;-84
2022/09/19 06:18:43;;;;;;;3.78;0.73;;;12.20;99.90;;;;;;6185410;22;20048;-85
2022/09/19 06:21:08;;;;;;;3.00;0.40;;;12.30;99.90;;;;;;6160455;23;20017;-84
2022/09/19 06:23:34;;;;;;;4.40;0.50;;;12.20;99.90;;;;;;6160216;23;20027;-83
2022/09/19 06:26:00;;;;;;;2.10;0.67;;;12.30;99.90;;;;;;6160634;22;20017;-83
2022/09/19 06:28:25;;;;;;;5.53;0.63;;;12.30;99.90;;;;;;6160250;23;20476;-84
2022/09/19 06:30:51;;;;;;;1.30;0.30;;;12.40;99.90;;;;;;6132733;23;20013;-84
2022/09/19 06:33:17;;;;;;;2.05;0.30;;;12.40;99.90;;;;;;6160141;23;20027;-83
2022/09/19 06:35:43;;;;;;;5.68;0.43;;;12.40;99.90;;;;;;6185048;23;20017;-84
2022/09/19 06:38:09;;;;;;;3.90;0.50;;;12.40;99.90;;;;;;6161459;23;20012;-85
2022/09/19 06:40:37;;;;;;;2.77;0.40;;;12.40;99.90;;;;;;6135859;23;20106;-84
2022/09/19 06:43:05;;;;;;;3.35;0.30;;;12.40;99.90;;;;;;6211441;23;20016;-85
2022/09/19 06:45:37;;;;;;;2.50;0.35;;;12.30;99.90;;;;;;6211354;23;20056;-84
2022/09/19 06:48:04;;;;;;;5.30;0.63;;;12.40;99.90;;;;;;6160896;23;20024;-81
2022/09/19 06:50:31;;;;;;;3.92;0.70;;;12.30;99.90;;;;;;6211526;23;20096;-83
2022/09/19 06:53:02;;;;;;;6.28;0.50;;;12.30;99.90;;;;;;6211415;22;20070;-82
2022/09/19 06:55:29;;;;;;;2.45;0.20;;;12.40;99.90;;;;;;6160329;23;20104;-83
2022/09/19 06:58:00;;;;;;;2.95;0.25;;;12.40;99.90;;;;;;6184990;23;20012;-85
2022/09/19 07:00:28;;;;;;;2.03;0.32;;;12.40;99.90;;;;;;6184996;23;20095;-84
2022/09/19 07:03:01;;;;;;;1.35;0.35;;;12.40;99.90;;;;;;6184525;23;20031;-83
2022/09/19 07:05:30;;;;;;;2.22;0.40;;;12.40;99.90;;;;;;6160159;23;20036;-84
2022/09/19 07:07:55;;;;;;;2.90;0.60;;;12.30;99.90;;;;;;6160440;23;20066;-83
2022/09/19 07:10:21;;;;;;;1.37;0.30;;;12.40;99.90;;;;;;6136543;23;20059;-86
2022/09/19 07:12:56;;;;;;;4.10;0.50;;;12.40;99.90;;;;;;6187569;23;20074;-85
2022/09/19 07:15:23;;;;;;;2.22;0.20;;;12.40;99.90;;;;;;6187405;23;20016;-86
2022/09/19 07:17:48;;;;;;;0.88;0.20;;;12.40;99.90;;;;;;6159927;23;20016;-84
2022/09/19 07:20:15;;;;;;;2.08;0.50;;;12.40;99.90;;;;;;6159704;23;20495;-86
2022/09/19 07:22:41;;;;;;;4.20;0.50;;;12.50;99.90;;;;;;6184691;23;20013;-86
2022/09/19 07:25:07;;;;;;;3.65;0.47;;;12.50;99.90;;;;;;6160258;23;20408;-85
2022/09/19 07:27:37;;;;;;;3.88;0.45;;;12.50;99.90;;;;;;6135673;23;20044;-85
2022/09/19 07:30:04;;;;;;;2.38;0.30;;;12.60;99.90;;;;;;6135465;23;20027;-85
2022/09/19 07:32:30;;;;;;;3.40;0.40;;;12.70;99.90;;;;;;6211218;23;20048;-86
2022/09/19 07:34:56;;;;;;;2.47;0.43;;;12.80;99.90;;;;;;6184716;23;20025;-85
2022/09/19 07:37:22;;;;;;;;;;;12.90;99.90;;;;;;6185258;22;20020;-86
2022/09/19 07:39:47;;;;;;;1.83;0.20;;;12.90;99.90;;;;;;6184854;23;20248;-87
2022/09/19 07:42:13;;;;;;;7.30;0.50;;;13.00;99.90;;;;;;6158993;23;20020;-86
2022/09/19 07:44:39;;;;;;;3.77;0.50;;;13.00;99.90;;;;;;6158988;23;20457;-89
2022/09/19 07:49:50;;;;;;;3.92;0.50;;;13.20;99.90;;;;;;6210691;23;20024;-87
2022/09/19 07:52:15;;;;;;;4.90;0.40;;;13.20;99.90;;;;;;6184689;23;20329;-86
2022/09/19 07:54:41;;;;;;;2.88;0.40;;;13.30;99.90;;;;;;6159580;23;20020;-86
2022/09/19 07:57:07;;;;;;;2.17;0.30;;;13.30;99.90;;;;;;6159860;23;20031;-85
2022/09/19 07:59:33;;;;;;;3.63;0.40;;;13.40;99.90;;;;;;6211149;23;20079;-88
2022/09/19 08:01:59;;;;;;;2.63;0.70;;;13.40;99.90;;;;;;6159800;23;20096;-91
2022/09/19 08:04:24;;;;;;;3.47;0.65;;;13.40;99.90;;;;;;6184710;23;20021;-86
2022/09/19 08:06:51;;;;;;;4.73;0.40;;;13.40;99.90;;;;;;6184733;23;20023;-85
2022/09/19 08:09:20;;;;;;;3.08;0.70;;;13.40;99.90;;;;;;6136210;23;20458;-85
2022/09/19 08:11:46;;;;;;;3.92;0.40;;;13.40;99.90;;;;;;6159897;23;20025;-85
2022/09/19 08:14:12;;;;;;;1.85;0.30;;;13.40;99.90;;;;;;6135540;23;20023;-89
2022/09/19 08:16:38;;;;;;;2.47;0.30;;;13.40;99.90;;;;;;6184647;23;20099;-85
2022/09/19 08:19:04;;;;;;;1.98;0.38;;;13.40;99.90;;;;;;6135332;23;20017;-87
2022/09/19 08:21:31;;;;;;;3.97;0.38;;;13.50;99.90;;;;;;6184803;23;20024;-85
2022/09/19 08:23:57;;;;;;;4.00;0.43;;;13.50;99.90;;;;;;6211222;23;20074;-85
2022/09/19 08:26:24;;;;;;;5.95;0.47;;;13.60;99.90;;;;;;6184650;23;20021;-85
2022/09/19 08:28:53;;;;;;;3.10;0.43;;;13.70;99.90;;;;;;6211813;23;20017;-91
2022/09/19 08:31:19;;;;;;;3.88;0.50;;;13.70;99.90;;;;;;6161331;23;20021;-86
2022/09/19 08:33:47;;;;;;;2.25;0.40;;;13.80;99.90;;;;;;6161542;23;20020;-90
2022/09/19 08:36:14;;;;;;;3.80;0.40;;;13.90;99.90;;;;;;6137472;23;20070;-87
2022/09/19 08:38:40;;;;;;;;;;;13.90;99.90;;;;;;6213116;23;20020;-91
2022/09/19 08:41:31;;;;;;;4.35;0.65;;;14.00;99.90;;;;;;6161532;23;19933;-94
2022/09/19 08:44:22;;;;;;;3.05;0.20;;;14.10;99.90;;;;;;6186394;23;20461;-92
2022/09/19 08:47:09;;;;;;;5.47;0.45;;;14.10;99.90;;;;;;6161823;23;20024;-93
2022/09/19 08:49:43;;;;;;;5.40;0.50;;;14.20;99.90;;;;;;6160907;23;20388;-92
2022/09/19 08:52:22;;;;;;;3.80;0.32;;;14.20;99.90;;;;;;6161218;23;20514;-90
2022/09/19 08:54:52;;;;;;;3.45;0.50;;;14.30;99.90;;;;;;6186116;23;20068;-92
2022/09/19 08:57:33;;;;;;;3.17;0.40;;;14.30;99.90;;;;;;6161511;23;20020;-91
2022/09/19 09:00:16;;;;;;;2.97;0.32;;;14.30;99.90;;;;;;6161286;23;20012;-86
2022/09/19 09:03:07;;;;;;;2.20;0.40;;;14.40;99.90;;;;;;6186029;23;20354;-92
2022/09/19 09:05:43;;;;;;;6.38;0.52;;;14.40;99.90;;;;;;6186439;23;20039;-93
2022/09/19 09:08:34;;;;;;;3.10;0.68;;;14.50;99.90;;;;;;6156510;23;20074;-94
2022/09/19 09:11:22;;;;;;;5.53;0.50;;;14.60;99.90;;;;;;6160216;23;20021;-89
2022/09/19 09:13:54;;;;;;;;;;;14.60;99.90;;;;;;6187449;23;20021;-90
2022/09/19 09:16:21;;;;;;;3.85;0.80;;;14.70;99.90;;;;;;6167374;23;19947;-86
2022/09/19 09:18:58;;;;;;;3.38;0.40;;;14.80;99.90;;;;;;6199641;23;20013;-85
2022/09/19 09:21:35;;;;;;;2.95;0.40;;;14.70;99.90;;;;;;6171034;23;20017;-85
2022/09/19 09:24:22;;;;;;;1.33;0.30;;;14.80;99.90;;;;;;6186177;23;20024;-88
2022/09/19 09:26:51;;;;;;;2.88;0.32;;;14.80;99.90;;;;;;6161149;23;20052;-91
2022/09/19 09:29:28;;;;;;;4.63;0.50;;;14.90;99.90;;;;;;6161531;23;20013;-90
2022/09/19 09:32:16;;;;;;;2.80;0.20;;;14.90;99.90;;;;;;6186124;23;20020;-89
2022/09/19 09:35:04;;;;;;;2.42;0.30;;;14.90;99.90;;;;;;6186359;23;20550;-86
2022/09/19 09:37:56;;;;;;;4.68;0.65;;;15.00;99.90;;;;;;6185963;23;20017;-91
2022/09/19 09:43:36;;;;;;;3.72;0.45;;;15.20;99.90;;;;;;6185881;23;20025;-89
2022/09/19 09:46:08;;;;;;;2.70;0.32;;;15.10;99.90;;;;;;6161338;23;20028;-87
2022/09/19 09:48:38;;;;;;;3.10;0.38;;;15.00;99.90;;;;;;6161452;23;20020;-91
2022/09/19 09:51:39;;;;;;;4.10;0.75;;;14.80;99.90;;;;;;6212647;23;20016;-91
2022/09/19 09:57:38;;;;;;;3.15;0.43;;;14.60;99.90;;;;;;6185836;23;20449;-90
2022/09/19 10:03:35;;;;;;;3.65;0.40;;;14.40;99.90;;;;;;6212087;23;20021;-92
2022/09/19 10:06:27;;;;;;;2.33;0.40;;;14.30;99.90;;;;;;6185547;23;20027;-88
2022/09/19 10:09:00;;;;;;;2.65;0.35;;;14.30;99.90;;;;;;6185568;23;20013;-91
2022/09/19 10:11:42;;;;;;;2.72;0.40;;;14.30;99.90;;;;;;6212711;23;20446;-91
2022/09/19 10:14:18;;;;;;;2.38;0.55;;;14.40;99.90;;;;;;6185577;23;20046;-92
2022/09/19 10:16:47;;;;;;;2.08;0.40;;;14.50;99.90;;;;;;6212020;23;20021;-86
2022/09/19 10:19:44;;;;;;;4.22;0.40;;;14.60;99.90;;;;;;6212221;23;20112;-89
2022/09/19 10:22:15;;;;;;;3.60;0.70;;;14.70;99.90;;;;;;6218047;23;20013;-86
2022/09/19 10:24:55;;;;;;;2.85;0.60;;;14.90;99.90;;;;;;6160618;23;20021;-90
2022/09/19 10:27:24;;;;;;;4.32;0.52;;;15.00;99.90;;;;;;6212224;23;20016;-89
2022/09/19 10:29:59;;;;;;;3.28;0.50;;;15.10;99.90;;;;;;6185538;23;20021;-87
2022/09/19 10:32:29;;;;;;;4.40;0.90;;;15.10;99.90;;;;;;6185712;23;20323;-91
2022/09/19 10:34:54;;;;;;;3.08;0.40;;;15.10;99.90;;;;;;6185782;23;20419;-91
2022/09/19 10:37:26;;;;;;;7.20;0.57;;;15.10;99.90;;;;;;6161135;23;20020;-88
2022/09/19 10:39:57;;;;;;;2.33;0.40;;;15.10;99.90;;;;;;6185345;23;20020;-90
2022/09/19 10:42:35;;;;;;;1.23;0.15;;;15.10;99.90;;;;;;6160589;23;20121;-87
2022/09/19 10:45:17;;;;;;;3.28;0.50;;;15.10;99.90;;;;;;6211742;23;20095;-85
2022/09/19 10:47:43;;;;;;;4.25;0.55;;;15.00;99.90;;;;;;6185105;23;20023;-85
2022/09/19 10:50:16;;;;;;;4.55;0.50;;;14.90;99.90;;;;;;6185023;23;20410;-88
2022/09/19 10:52:44;;;;;;;1.90;0.40;;;14.70;99.90;;;;;;6211339;23;20025;-86
2022/09/19 10:55:22;;;;;;;3.13;0.38;;;14.50;99.90;;;;;;6160122;23;20012;-88
2022/09/19 10:57:59;;;;;;;3.00;0.35;;;14.30;99.90;;;;;;6185109;23;20025;-88
2022/09/19 11:00:25;;;;;;;2.58;0.45;;;14.10;99.90;;;;;;6185090;23;20017;-88
2022/09/19 11:02:56;;;;;;;4.00;0.50;;;14.10;99.90;;;;;;6184918;23;20017;-87
2022/09/19 11:05:29;;;;;;;2.75;0.52;;;14.10;99.90;;;;;;6185266;23;20066;-88
2022/09/19 11:07:56;;;;;;;1.25;0.30;;;14.10;99.90;;;;;;6184892;23;20017;-88
2022/09/19 11:10:28;;;;;;;4.97;0.47;;;14.20;99.90;;;;;;6184830;23;20323;-86
2022/09/19 11:13:13;;;;;;;2.05;0.20;;;14.40;99.90;;;;;;6211524;23;20509;-88
2022/09/19 11:16:01;;;;;;;3.75;0.63;;;14.50;99.90;;;;;;6160449;23;20104;-87
2022/09/19 11:18:36;;;;;;;2.08;0.40;;;14.70;99.90;;;;;;6209582;23;20048;-86
2022/09/19 11:21:30;;;;;;;3.92;0.38;;;14.80;99.90;;;;;;6159008;22;20016;-85
2022/09/19 11:24:08;;;;;;;3.28;0.65;;;15.00;99.90;;;;;;6186244;23;20028;-87
2022/09/19 11:26:59;;;;;;;3.50;0.40;;;15.10;99.90;;;;;;6185332;23;20024;-88
2022/09/19 11:29:35;;;;;;;4.18;0.43;;;15.30;99.90;;;;;;6211577;23;20027;-88
2022/09/19 11:32:21;;;;;;;5.30;0.40;;;15.50;99.90;;;;;;6185136;23;20069;-88
2022/09/19 11:35:00;;;;;;;3.50;0.60;;;15.60;99.90;;;;;;6185099;23;20100;-88
2022/09/19 11:37:53;;;;;;;3.85;0.60;;;15.70;99.90;;;;;;6160580;23;20016;-87
2022/09/19 11:40:28;;;;;;;0.65;0.30;;;15.70;99.90;;;;;;6160203;23;20019;-88
2022/09/19 11:43:07;;;;;;;3.92;0.52;;;15.80;99.90;;;;;;6160055;23;20052;-88
2022/09/19 11:45:57;;;;;;;2.83;0.55;;;15.80;99.90;;;;;;6185004;23;20107;-87
2022/09/19 11:48:45;;;;;;;3.03;0.55;;;16.00;99.90;;;;;;6184834;23;20464;-88
2022/09/19 11:51:31;;;;;;;1.50;0.30;;;16.10;99.90;;;;;;6184789;22;20020;-87
2022/09/19 11:54:26;;;;;;;3.92;0.60;;;16.00;99.90;;;;;;6211571;23;20031;-88
2022/09/19 11:56:59;;;;;;;1.35;0.43;;;16.10;99.90;;;;;;6185416;23;20021;-89
2022/09/19 12:00:00;;;;;;;2.00;0.28;;;16.20;99.90;;;;;;6188814;23;20056;-89
2022/09/19 12:02:58;;;;;;;3.88;0.80;;;16.20;99.90;;;;;;6173641;23;20028;-88
2022/09/19 12:05:49;;;;;;;5.35;0.50;;;16.30;99.90;;;;;;6187872;23;20514;-88
2022/09/19 12:08:28;;;;;;;3.53;0.57;;;16.40;99.90;;;;;;6159829;22;20013;-86
2022/09/19 12:11:08;;;;;;;3.47;1.45;;;16.50;99.90;;;;;;6160097;22;20020;-89
2022/09/19 12:13:53;;;;;;;3.58;0.50;;;16.60;99.90;;;;;;6159857;22;20020;-86
2022/09/19 12:16:50;;;;;;;4.85;0.77;;;16.60;99.90;;;;;;6159895;23;20020;-88
2022/09/19 12:19:37;;;;;;;4.15;0.68;;;16.60;99.90;;;;;;6211126;23;20149;-86
2022/09/19 12:22:23;;;;;;;4.22;0.50;;;16.50;99.90;;;;;;6184743;23;20122;-89
2022/09/19 12:25:12;;;;;;;3.65;0.90;;;16.50;99.90;;;;;;6159804;23;20021;-90
2022/09/19 12:27:50;;;;;;;4.63;0.68;;;16.60;99.90;;;;;;6184665;23;20105;-90
2022/09/19 12:30:22;;;;;;;3.67;0.60;;;16.60;99.90;;;;;;6184387;23;20017;-87
2022/09/19 12:33:06;;;;;;;1.75;0.40;;;16.60;99.90;;;;;;6135508;23;20017;-86
2022/09/19 12:36:10;;;;;;;4.05;0.40;;;16.70;99.90;;;;;;6184322;23;20027;-86
2022/09/19 12:38:51;;;;;;;3.40;0.60;;;16.70;99.90;;;;;;6166499;23;20017;-87
2022/09/19 12:41:20;;;;;;;2.72;0.35;;;16.80;99.90;;;;;;6212892;23;20028;-89
2022/09/19 12:43:49;;;;;;;3.50;0.40;;;16.80;99.90;;;;;;6184123;23;20059;-88
2022/09/19 12:46:38;;;;;;;4.65;1.02;;;16.80;99.90;;;;;;6159609;22;20021;-89
2022/09/19 12:49:16;;;;;;;1.85;0.20;;;16.80;99.90;;;;;;6159505;23;20025;-87
2022/09/19 12:51:53;;;;;;;3.20;0.35;;;16.80;99.90;;;;;;6159365;22;20013;-87
2022/09/19 12:54:37;;;;;;;3.03;0.65;;;16.90;99.90;;;;;;6183958;23;20465;-85
2022/09/19 12:57:16;;;;;;;2.75;0.45;;;16.90;99.90;;;;;;6184145;23;20017;-90
2022/09/19 12:59:43;;;;;;;1.83;0.40;;;17.00;99.90;;;;;;6159730;23;20021;-88
2022/09/19 13:02:51;;;;;;;3.85;0.38;;;17.00;99.90;;;;;;6210678;23;20442;-86
2022/09/19 13:05:26;;;;;;;4.88;0.70;;;16.90;99.90;;;;;;6162627;23;20095;-87
2022/09/19 13:07:55;;;;;;;3.85;0.45;;;16.90;99.90;;;;;;6209038;23;20026;-87
2022/09/19 13:10:28;;;;;;;3.90;0.47;;;16.90;99.90;;;;;;6131172;23;20021;-88
2022/09/19 13:13:06;;;;;;;2.58;0.68;;;16.90;99.90;;;;;;6130045;23;20017;-88
2022/09/19 13:15:54;;;;;;;3.88;0.77;;;16.80;99.90;;;;;;6155740;23;20017;-86
2022/09/19 13:24:00;;;;;;;0.98;0.43;;;16.40;99.90;;;;;;6155869;23;20028;-88
2022/09/19 13:26:35;;;;;;;1.08;0.25;;;16.40;99.90;;;;;;6131098;23;20435;-88
2022/09/19 13:29:28;;;;;;;3.33;0.60;;;16.40;99.90;;;;;;6131409;23;20072;-89
2022/09/19 13:31:57;;;;;;;2.60;0.40;;;16.30;99.90;;;;;;6155746;23;20021;-87
2022/09/19 13:35:00;;;;;;;1.75;0.32;;;16.30;99.90;;;;;;6155782;23;20100;-89
2022/09/19 13:37:26;;;;;;;3.05;0.43;;;16.20;99.90;;;;;;6131130;23;20021;-85
2022/09/19 13:39:54;;;;;;;3.50;0.35;;;16.10;99.90;;;;;;6180436;23;20092;-87
2022/09/19 13:42:29;;;;;;;2.55;0.30;;;16.00;99.90;;;;;;6180461;23;20021;-87
2022/09/19 13:45:21;;;;;;;4.50;0.55;;;15.90;99.90;;;;;;6155964;23;20021;-89